Pagrindinis puslapis
METAR-TAF:

METAR-TAF

Oro uostai :

Elista, Rusija

platuma: 46-22N, ilguma: 044-20E, Aukštis: 150 m

Dabartinis oras

Ataskaita buvo paskelbta 25 minutes, ne 22:00 UTC
Vėjas 12 kt iš Pietų/Pietvakarių
Temperatūra 17°C
Drėgmė 55%
Slėgis 1012 hPa
Matomumas 10 km arba daugiau

METAR: URWI 162200Z AUTO 21006MPS 9999 // ///////// 17/08 Q1012

Laikas: 02:25 (22:25 UTC)

Prognozė

Ataskaita buvo paskelbta 11 valandos ir 30 minutes, ne 10:55 UTC
Prognozė galioja nuo 16 metu 12 UTC su 16 metu 21 UTC
Vėjas 16 kt iš Pietvakarių su gūsio iki 27 kt
Matomumas 10 km arba daugiau
Išsisklaidę debesys ne aukštis 1600 ft
Išsisklaidę debesys ne aukštis 3000 ft, Liūtiniai kamuoliniai debesys.
Tapsmas
nuo 16 metu 14 UTC su 16 metu 15 UTC
Vėjas 6 kt iš Pietų su gūsio iki 23 kt

TAF: URWI 161055Z 1612/1621 23008G14MPS 9999 SCT016 SCT030CB BECMG 1614/1615 19003G12MPS

Orai ataskaitas ir orų prognozės (METAR, TAF).

turimą stotys yra geltonos ir raudonos taškus žemėlapyje.

Perkelti pele per norėdami pamatyti stoties vardą.

Tada spustelėkite, norėdami matyti oro stebėjimo ir prognozės.

Norėdami pakeisti žemėlapį: spustelėkite ant žalios mygtukų su juodo kryžiaus žemyn,; žalią mygtuką su brūkšneliu, jei norite nutolinti; arba žalių rodyklių gretimoms žemėlapius.


METAR-TAF: